sensor_id;sensor_type;location;lat;lon;timestamp;pressure;altitude;pressure_sealevel;temperature;humidity
56074;BME280;41950;55.840;37.442;2023-04-06T00:01:36;100376.91;;;4.49;79.51
56074;BME280;41950;55.840;37.442;2023-04-06T00:04:02;100373.41;;;4.46;79.65
56074;BME280;41950;55.840;37.442;2023-04-06T00:06:27;100360.28;;;4.32;79.65
56074;BME280;41950;55.840;37.442;2023-04-06T00:08:55;100372.34;;;4.36;79.96
56074;BME280;41950;55.840;37.442;2023-04-06T00:11:21;100352.41;;;4.23;80.02
56074;BME280;41950;55.840;37.442;2023-04-06T00:13:47;100384.31;;;4.34;80.30
56074;BME280;41950;55.840;37.442;2023-04-06T00:16:13;100379.13;;;4.32;80.39
56074;BME280;41950;55.840;37.442;2023-04-06T00:18:39;100350.44;;;4.10;80.43
56074;BME280;41950;55.840;37.442;2023-04-06T00:21:04;100370.38;;;4.21;80.69
56074;BME280;41950;55.840;37.442;2023-04-06T00:23:30;100365.06;;;4.12;80.78
56074;BME280;41950;55.840;37.442;2023-04-06T00:25:56;100354.56;;;4.01;80.84
56074;BME280;41950;55.840;37.442;2023-04-06T00:28:22;100351.91;;;3.97;81.03
56074;BME280;41950;55.840;37.442;2023-04-06T00:30:54;100372.59;;;4.04;80.99
56074;BME280;41950;55.840;37.442;2023-04-06T00:33:21;100366.56;;;4.02;81.15
56074;BME280;41950;55.840;37.442;2023-04-06T00:35:47;100373.41;;;4.02;81.29
56074;BME280;41950;55.840;37.442;2023-04-06T00:38:14;100362.97;;;3.94;81.39
56074;BME280;41950;55.840;37.442;2023-04-06T00:40:40;100362.13;;;3.94;81.41
56074;BME280;41950;55.840;37.442;2023-04-06T00:43:06;100339.44;;;3.73;81.52
56074;BME280;41950;55.840;37.442;2023-04-06T00:45:34;100379.34;;;3.99;81.84
56074;BME280;41950;55.840;37.442;2023-04-06T00:48:00;100333.44;;;3.72;81.76
56074;BME280;41950;55.840;37.442;2023-04-06T00:50:27;100378.44;;;3.97;81.61
56074;BME280;41950;55.840;37.442;2023-04-06T00:52:54;100365.41;;;3.87;81.70
56074;BME280;41950;55.840;37.442;2023-04-06T00:55:20;100367.16;;;3.89;82.00
56074;BME280;41950;55.840;37.442;2023-04-06T00:57:46;100379.97;;;3.88;82.14
56074;BME280;41950;55.840;37.442;2023-04-06T01:00:13;100385.09;;;3.88;81.97
56074;BME280;41950;55.840;37.442;2023-04-06T01:02:39;100385.09;;;3.88;81.90
56074;BME280;41950;55.840;37.442;2023-04-06T01:05:06;100357.47;;;3.76;81.98
56074;BME280;41950;55.840;37.442;2023-04-06T01:07:31;100373.91;;;3.84;82.31
56074;BME280;41950;55.840;37.442;2023-04-06T01:09:57;100379.91;;;3.85;82.37
56074;BME280;41950;55.840;37.442;2023-04-06T01:12:24;100355.63;;;3.70;82.08
56074;BME280;41950;55.840;37.442;2023-04-06T01:14:50;100367.72;;;3.76;82.25
56074;BME280;41950;55.840;37.442;2023-04-06T01:17:16;100366.88;;;3.77;82.37
56074;BME280;41950;55.840;37.442;2023-04-06T01:19:41;100369.44;;;3.76;82.45
56074;BME280;41950;55.840;37.442;2023-04-06T01:22:07;100362.53;;;3.73;82.54
56074;BME280;41950;55.840;37.442;2023-04-06T01:24:33;100370.22;;;3.73;82.55
56074;BME280;41950;55.840;37.442;2023-04-06T01:26:59;100345.88;;;3.54;82.34
56074;BME280;41950;55.840;37.442;2023-04-06T01:29:26;100376.13;;;3.69;82.44
56074;BME280;41950;55.840;37.442;2023-04-06T01:31:51;100370.09;;;3.67;82.57
56074;BME280;41950;55.840;37.442;2023-04-06T01:34:17;100371.75;;;3.63;82.45
56074;BME280;41950;55.840;37.442;2023-04-06T01:36:43;100366.50;;;3.57;82.51
56074;BME280;41950;55.840;37.442;2023-04-06T01:39:09;100356.97;;;3.53;82.85
56074;BME280;41950;55.840;37.442;2023-04-06T01:41:34;100373.25;;;3.55;82.95
56074;BME280;41950;55.840;37.442;2023-04-06T01:44:01;100370.59;;;3.51;83.29
56074;BME280;41950;55.840;37.442;2023-04-06T01:46:26;100326.41;;;3.25;83.12
56074;BME280;41950;55.840;37.442;2023-04-06T01:48:52;100353.09;;;3.33;83.05
56074;BME280;41950;55.840;37.442;2023-04-06T01:51:18;100372.22;;;3.47;83.12
56074;BME280;41950;55.840;37.442;2023-04-06T01:53:43;100374.72;;;3.44;83.05
56074;BME280;41950;55.840;37.442;2023-04-06T01:56:09;100360.88;;;3.36;83.21
56074;BME280;41950;55.840;37.442;2023-04-06T01:58:35;100365.97;;;3.34;83.20
56074;BME280;41950;55.840;37.442;2023-04-06T02:01:01;100352.13;;;3.28;83.25
56074;BME280;41950;55.840;37.442;2023-04-06T02:03:27;100372.88;;;3.37;83.38
56074;BME280;41950;55.840;37.442;2023-04-06T02:05:52;100352.94;;;3.27;83.49
56074;BME280;41950;55.840;37.442;2023-04-06T02:08:18;100355.47;;;3.25;83.37
56074;BME280;41950;55.840;37.442;2023-04-06T02:10:44;100317.44;;;3.06;83.46
56074;BME280;41950;55.840;37.442;2023-04-06T02:13:10;100372.84;;;3.35;83.56
56074;BME280;41950;55.840;37.442;2023-04-06T02:15:35;100358.09;;;3.28;83.53
56074;BME280;41950;55.840;37.442;2023-04-06T02:18:01;100365.97;;;3.34;83.38
56074;BME280;41950;55.840;37.442;2023-04-06T02:20:27;100363.13;;;3.24;83.64
56074;BME280;41950;55.840;37.442;2023-04-06T02:22:52;100378.81;;;3.34;83.58
56074;BME280;41950;55.840;37.442;2023-04-06T02:25:18;100352.72;;;3.16;83.14
56074;BME280;41950;55.840;37.442;2023-04-06T02:27:44;100378.72;;;3.31;83.11
56074;BME280;41950;55.840;37.442;2023-04-06T02:30:10;100368.13;;;3.18;83.42
56074;BME280;41950;55.840;37.442;2023-04-06T02:32:36;100382.84;;;3.25;83.50
56074;BME280;41950;55.840;37.442;2023-04-06T02:35:01;100390.53;;;3.25;83.31
56074;BME280;41950;55.840;37.442;2023-04-06T02:37:28;100358.53;;;3.09;83.41
56074;BME280;41950;55.840;37.442;2023-04-06T02:39:54;100367.09;;;3.09;83.19
56074;BME280;41950;55.840;37.442;2023-04-06T02:42:20;100400.69;;;3.20;83.33
56074;BME280;41950;55.840;37.442;2023-04-06T02:44:46;100387.72;;;3.14;83.44
56074;BME280;41950;55.840;37.442;2023-04-06T02:47:12;100378.97;;;3.06;83.48
56074;BME280;41950;55.840;37.442;2023-04-06T02:49:37;100397.28;;;3.21;83.44
56074;BME280;41950;55.840;37.442;2023-04-06T02:52:03;100388.56;;;3.13;83.36
56074;BME280;41950;55.840;37.442;2023-04-06T02:54:29;100400.56;;;3.16;83.28
56074;BME280;41950;55.840;37.442;2023-04-06T02:56:54;100396.38;;;3.19;83.30
56074;BME280;41950;55.840;37.442;2023-04-06T02:59:20;100380.72;;;3.07;83.25
56074;BME280;41950;55.840;37.442;2023-04-06T03:01:46;100413.50;;;3.20;83.17
56074;BME280;41950;55.840;37.442;2023-04-06T03:04:12;100410.91;;;3.19;82.95
56074;BME280;41950;55.840;37.442;2023-04-06T03:06:37;100399.69;;;3.14;83.24
56074;BME280;41950;55.840;37.442;2023-04-06T03:09:03;100422.06;;;3.21;83.03
56074;BME280;41950;55.840;37.442;2023-04-06T03:11:29;100406.56;;;3.16;83.05
56074;BME280;41950;55.840;37.442;2023-04-06T03:13:55;100416.91;;;3.19;83.05
56074;BME280;41950;55.840;37.442;2023-04-06T03:16:20;100401.31;;;3.10;82.54
56074;BME280;41950;55.840;37.442;2023-04-06T03:18:46;100397.81;;;3.06;82.67
56074;BME280;41950;55.840;37.442;2023-04-06T03:21:13;100420.38;;;3.21;82.58
56074;BME280;41950;55.840;37.442;2023-04-06T03:23:41;100430.63;;;3.21;82.45
56074;BME280;41950;55.840;37.442;2023-04-06T03:26:07;100418.44;;;3.11;82.82
56074;BME280;41950;55.840;37.442;2023-04-06T03:28:33;100409.78;;;3.07;82.64
56074;BME280;41950;55.840;37.442;2023-04-06T03:30:58;100421.97;;;3.16;82.51
56074;BME280;41950;55.840;37.442;2023-04-06T03:33:24;100425.44;;;3.18;82.47
56074;BME280;41950;55.840;37.442;2023-04-06T03:35:53;100433.19;;;3.21;82.55
56074;BME280;41950;55.840;37.442;2023-04-06T03:38:19;100436.66;;;3.23;82.69
56074;BME280;41950;55.840;37.442;2023-04-06T03:40:44;100428.94;;;3.22;82.50
56074;BME280;41950;55.840;37.442;2023-04-06T03:43:10;100427.31;;;3.25;82.29
56074;BME280;41950;55.840;37.442;2023-04-06T03:45:36;100440.38;;;3.34;82.11
56074;BME280;41950;55.840;37.442;2023-04-06T03:48:02;100408.28;;;3.16;81.85
56074;BME280;41950;55.840;37.442;2023-04-06T03:50:28;100421.09;;;3.16;81.80
56074;BME280;41950;55.840;37.442;2023-04-06T03:52:53;100394.31;;;3.03;81.93
56074;BME280;41950;55.840;37.442;2023-04-06T03:55:19;100447.25;;;3.35;81.81
56074;BME280;41950;55.840;37.442;2023-04-06T03:57:45;100450.75;;;3.39;81.71
56074;BME280;41950;55.840;37.442;2023-04-06T04:00:11;100448.25;;;3.42;81.53
56074;BME280;41950;55.840;37.442;2023-04-06T04:02:37;100433.47;;;3.32;81.25
56074;BME280;41950;55.840;37.442;2023-04-06T04:05:03;100394.44;;;3.09;81.24
56074;BME280;41950;55.840;37.442;2023-04-06T04:07:31;100419.66;;;3.27;81.04
56074;BME280;41950;55.840;37.442;2023-04-06T04:09:57;100417.06;;;3.27;81.09
56074;BME280;41950;55.840;37.442;2023-04-06T04:12:23;100467.41;;;3.56;81.01
56074;BME280;41950;55.840;37.442;2023-04-06T04:14:51;100460.84;;;3.69;80.70
56074;BME280;41950;55.840;37.442;2023-04-06T04:17:17;100466.63;;;3.98;79.65
56074;BME280;41950;55.840;37.442;2023-04-06T04:19:43;100470.53;;;4.20;78.21
56074;BME280;41950;55.840;37.442;2023-04-06T04:22:11;100461.88;;;4.15;77.86
56074;BME280;41950;55.840;37.442;2023-04-06T04:24:40;100451.28;;;4.01;78.01
56074;BME280;41950;55.840;37.442;2023-04-06T04:27:05;100460.56;;;3.94;78.31
56074;BME280;41950;55.840;37.442;2023-04-06T04:29:34;100438.00;;;3.81;78.58
56074;BME280;41950;55.840;37.442;2023-04-06T04:32:00;100451.84;;;3.86;78.41
56074;BME280;41950;55.840;37.442;2023-04-06T04:34:26;100451.03;;;3.89;78.54
56074;BME280;41950;55.840;37.442;2023-04-06T04:36:52;100452.00;;;3.94;78.64
56074;BME280;41950;55.840;37.442;2023-04-06T04:39:18;100475.34;;;4.04;78.33
56074;BME280;41950;55.840;37.442;2023-04-06T04:41:43;100458.09;;;3.99;78.42
56074;BME280;41950;55.840;37.442;2023-04-06T04:44:09;100446.03;;;3.95;78.29
56074;BME280;41950;55.840;37.442;2023-04-06T04:46:35;100454.84;;;4.08;77.99
56074;BME280;41950;55.840;37.442;2023-04-06T04:49:01;100459.28;;;4.13;78.06
56074;BME280;41950;55.840;37.442;2023-04-06T04:51:26;100471.44;;;4.22;77.82
56074;BME280;41950;55.840;37.442;2023-04-06T04:53:52;100463.81;;;4.26;77.53
56074;BME280;41950;55.840;37.442;2023-04-06T04:56:18;100456.84;;;4.21;76.97
56074;BME280;41950;55.840;37.442;2023-04-06T04:58:43;100458.75;;;4.29;77.39
56074;BME280;41950;55.840;37.442;2023-04-06T05:01:09;100457.28;;;4.42;76.81
56074;BME280;41950;55.840;37.442;2023-04-06T05:03:36;100460.63;;;4.38;76.58
56074;BME280;41950;55.840;37.442;2023-04-06T05:06:04;100468.53;;;4.47;76.59
56074;BME280;41950;55.840;37.442;2023-04-06T05:08:31;100451.28;;;4.42;76.38
56074;BME280;41950;55.840;37.442;2023-04-06T05:10:57;100478.34;;;4.67;76.20
56074;BME280;41950;55.840;37.442;2023-04-06T05:13:25;100466.38;;;4.69;75.84
56074;BME280;41950;55.840;37.442;2023-04-06T05:15:54;100450.13;;;4.70;75.38
56074;BME280;41950;55.840;37.442;2023-04-06T05:18:19;100476.28;;;4.94;75.43
56074;BME280;41950;55.840;37.442;2023-04-06T05:20:46;100473.88;;;5.03;74.85
56074;BME280;41950;55.840;37.442;2023-04-06T05:23:12;100474.78;;;5.07;74.55
56074;BME280;41950;55.840;37.442;2023-04-06T05:25:38;100475.72;;;5.10;74.15
56074;BME280;41950;55.840;37.442;2023-04-06T05:28:04;100476.78;;;5.21;74.29
56074;BME280;41950;55.840;37.442;2023-04-06T05:30:30;100476.03;;;5.28;73.92
56074;BME280;41950;55.840;37.442;2023-04-06T05:32:55;100461.47;;;5.31;73.57
56074;BME280;41950;55.840;37.442;2023-04-06T05:35:21;100481.41;;;5.44;72.88
56074;BME280;41950;55.840;37.442;2023-04-06T05:37:47;100483.34;;;5.57;72.63
56074;BME280;41950;55.840;37.442;2023-04-06T05:40:12;100472.25;;;5.61;72.40
56074;BME280;41950;55.840;37.442;2023-04-06T05:42:39;100486.94;;;5.68;71.85
56074;BME280;41950;55.840;37.442;2023-04-06T05:45:06;100482.69;;;5.70;71.80
56074;BME280;41950;55.840;37.442;2023-04-06T05:47:32;100469.84;;;5.73;71.86
56074;BME280;41950;55.840;37.442;2023-04-06T05:49:58;100471.63;;;5.76;71.57
56074;BME280;41950;55.840;37.442;2023-04-06T05:52:24;100484.78;;;5.93;71.38
56074;BME280;41950;55.840;37.442;2023-04-06T05:54:49;100473.63;;;5.94;71.08
56074;BME280;41950;55.840;37.442;2023-04-06T05:57:15;100472.78;;;5.95;70.47
56074;BME280;41950;55.840;37.442;2023-04-06T05:59:44;100451.94;;;5.79;70.17
56074;BME280;41950;55.840;37.442;2023-04-06T06:02:10;100461.56;;;5.89;70.20
56074;BME280;41950;55.840;37.442;2023-04-06T06:04:36;100484.13;;;6.07;69.98
56074;BME280;41950;55.840;37.442;2023-04-06T06:07:02;100485.13;;;6.17;69.95
56074;BME280;41950;55.840;37.442;2023-04-06T06:09:27;100439.31;;;5.98;69.68
56074;BME280;41950;55.840;37.442;2023-04-06T06:11:53;100481.91;;;6.33;69.43
56074;BME280;41950;55.840;37.442;2023-04-06T06:14:19;100476.78;;;6.35;68.87
56074;BME280;41950;55.840;37.442;2023-04-06T06:16:45;100467.28;;;6.32;68.71
56074;BME280;41950;55.840;37.442;2023-04-06T06:19:11;100452.63;;;6.30;68.31
56074;BME280;41950;55.840;37.442;2023-04-06T06:21:37;100457.88;;;6.36;68.12
56074;BME280;41950;55.840;37.442;2023-04-06T06:24:02;100477.00;;;6.55;68.20
56074;BME280;41950;55.840;37.442;2023-04-06T06:26:28;100468.50;;;6.62;67.88
56074;BME280;41950;55.840;37.442;2023-04-06T06:28:54;100460.75;;;6.62;67.61
56074;BME280;41950;55.840;37.442;2023-04-06T06:31:20;100470.44;;;6.84;67.29
56074;BME280;41950;55.840;37.442;2023-04-06T06:33:48;100479.09;;;6.86;66.94
56074;BME280;41950;55.840;37.442;2023-04-06T06:36:17;100470.59;;;6.98;67.15
56074;BME280;41950;55.840;37.442;2023-04-06T06:38:43;100461.19;;;7.06;66.63
56074;BME280;41950;55.840;37.442;2023-04-06T06:41:08;100476.00;;;7.22;66.43
56074;BME280;41950;55.840;37.442;2023-04-06T06:43:34;100456.22;;;7.26;66.28
56074;BME280;41950;55.840;37.442;2023-04-06T06:46:00;100470.16;;;7.44;66.10
56074;BME280;41950;55.840;37.442;2023-04-06T06:48:26;100463.31;;;7.51;65.05
56074;BME280;41950;55.840;37.442;2023-04-06T06:50:51;100468.50;;;7.53;65.20
56074;BME280;41950;55.840;37.442;2023-04-06T06:53:17;100465.09;;;7.61;64.89
56074;BME280;41950;55.840;37.442;2023-04-06T06:55:43;100459.94;;;7.61;64.77
56074;BME280;41950;55.840;37.442;2023-04-06T06:58:09;100472.06;;;7.68;65.01
56074;BME280;41950;55.840;37.442;2023-04-06T07:00:35;100446.16;;;7.62;64.39
56074;BME280;41950;55.840;37.442;2023-04-06T07:03:01;100448.81;;;7.68;64.35
56074;BME280;41950;55.840;37.442;2023-04-06T07:05:27;100447.16;;;7.80;64.11
56074;BME280;41950;55.840;37.442;2023-04-06T07:07:53;100467.94;;;7.96;63.84
56074;BME280;41950;55.840;37.442;2023-04-06T07:10:19;100446.34;;;7.93;63.53
56074;BME280;41950;55.840;37.442;2023-04-06T07:12:44;100468.03;;;8.15;63.06
56074;BME280;41950;55.840;37.442;2023-04-06T07:15:11;100468.91;;;8.18;63.08
56074;BME280;41950;55.840;37.442;2023-04-06T07:17:37;100463.78;;;8.24;62.67
56074;BME280;41950;55.840;37.442;2023-04-06T07:20:02;100470.69;;;8.30;62.46
56074;BME280;41950;55.840;37.442;2023-04-06T07:22:29;100443.94;;;8.23;61.68
56074;BME280;41950;55.840;37.442;2023-04-06T07:24:54;100450.06;;;8.34;61.58
56074;BME280;41950;55.840;37.442;2023-04-06T07:27:20;100450.94;;;8.49;61.46
56074;BME280;41950;55.840;37.442;2023-04-06T07:29:46;100460.50;;;8.65;61.95
56074;BME280;41950;55.840;37.442;2023-04-06T07:32:12;100465.69;;;8.74;60.84
56074;BME280;41950;55.840;37.442;2023-04-06T07:34:37;100451.91;;;8.75;60.53
56074;BME280;41950;55.840;37.442;2023-04-06T07:37:03;100460.56;;;8.85;59.98
56074;BME280;41950;55.840;37.442;2023-04-06T07:39:29;100451.94;;;8.87;59.50
56074;BME280;41950;55.840;37.442;2023-04-06T07:41:54;100455.41;;;8.94;59.79
56074;BME280;41950;55.840;37.442;2023-04-06T07:44:20;100454.53;;;8.92;59.49
56074;BME280;41950;55.840;37.442;2023-04-06T07:46:46;100420.00;;;8.94;59.39
56074;BME280;41950;55.840;37.442;2023-04-06T07:49:11;100451.09;;;9.23;58.78
56074;BME280;41950;55.840;37.442;2023-04-06T07:51:38;100446.81;;;9.33;58.00
56074;BME280;41950;55.840;37.442;2023-04-06T07:54:05;100454.56;;;9.50;57.50
56074;BME280;41950;55.840;37.442;2023-04-06T07:56:31;100455.41;;;9.58;57.71
56074;BME280;41950;55.840;37.442;2023-04-06T07:58:56;100449.38;;;9.68;56.67
56074;BME280;41950;55.840;37.442;2023-04-06T08:01:24;100439.88;;;9.66;56.69
56074;BME280;41950;55.840;37.442;2023-04-06T08:03:49;100444.16;;;9.80;55.74
56074;BME280;41950;55.840;37.442;2023-04-06T08:06:16;100453.63;;;9.97;55.83
56074;BME280;41950;55.840;37.442;2023-04-06T08:08:42;100452.78;;;9.96;55.32
56074;BME280;41950;55.840;37.442;2023-04-06T08:11:08;100433.78;;;9.91;54.96
56074;BME280;41950;55.840;37.442;2023-04-06T08:13:35;100451.88;;;10.06;54.68
56074;BME280;41950;55.840;37.442;2023-04-06T08:16:01;100438.91;;;10.06;54.38
56074;BME280;41950;55.840;37.442;2023-04-06T08:18:27;100444.06;;;10.25;54.88
56074;BME280;41950;55.840;37.442;2023-04-06T08:20:54;100444.03;;;10.31;53.50
56074;BME280;41950;55.840;37.442;2023-04-06T08:23:20;100446.63;;;10.35;54.22
56074;BME280;41950;55.840;37.442;2023-04-06T08:25:46;100439.66;;;10.40;53.59
56074;BME280;41950;55.840;37.442;2023-04-06T08:28:12;100437.97;;;10.41;53.60
56074;BME280;41950;55.840;37.442;2023-04-06T08:30:40;100437.06;;;10.46;53.68
56074;BME280;41950;55.840;37.442;2023-04-06T08:33:06;100442.22;;;10.56;52.85
56074;BME280;41950;55.840;37.442;2023-04-06T08:35:32;100443.00;;;10.71;53.07
56074;BME280;41950;55.840;37.442;2023-04-06T08:37:58;100424.81;;;10.74;52.87
56074;BME280;41950;55.840;37.442;2023-04-06T08:40:24;100435.06;;;10.96;53.66
56074;BME280;41950;55.840;37.442;2023-04-06T08:42:52;100441.03;;;11.08;52.42
56074;BME280;41950;55.840;37.442;2023-04-06T08:45:19;100416.88;;;10.93;51.83
56074;BME280;41950;55.840;37.442;2023-04-06T08:47:53;100440.97;;;11.13;52.30
56074;BME280;41950;55.840;37.442;2023-04-06T08:50:20;100424.47;;;11.19;52.37
56074;BME280;41950;55.840;37.442;2023-04-06T08:52:48;100407.13;;;11.25;52.40
56074;BME280;41950;55.840;37.442;2023-04-06T08:55:15;100436.34;;;11.49;50.55
56074;BME280;41950;55.840;37.442;2023-04-06T08:57:42;100423.34;;;11.49;51.30
56074;BME280;41950;55.840;37.442;2023-04-06T09:00:10;100412.94;;;11.53;49.90
56074;BME280;41950;55.840;37.442;2023-04-06T09:02:40;100413.81;;;11.54;50.55
56074;BME280;41950;55.840;37.442;2023-04-06T09:05:08;100426.56;;;11.75;50.40
56074;BME280;41950;55.840;37.442;2023-04-06T09:07:36;100401.53;;;11.66;49.94
56074;BME280;41950;55.840;37.442;2023-04-06T09:10:03;100427.25;;;11.95;49.27
56074;BME280;41950;55.840;37.442;2023-04-06T09:12:30;100427.13;;;12.07;48.73
56074;BME280;41950;55.840;37.442;2023-04-06T09:14:58;100418.41;;;12.13;47.34
56074;BME280;41950;55.840;37.442;2023-04-06T09:17:29;100411.38;;;12.18;47.46
56074;BME280;41950;55.840;37.442;2023-04-06T09:19:55;100419.88;;;12.34;48.05
56074;BME280;41950;55.840;37.442;2023-04-06T09:22:21;100418.91;;;12.41;45.52
56074;BME280;41950;55.840;37.442;2023-04-06T09:24:49;100428.47;;;12.41;45.58
56074;BME280;41950;55.840;37.442;2023-04-06T09:27:14;100411.97;;;12.42;46.57
56074;BME280;41950;55.840;37.442;2023-04-06T09:29:41;100410.13;;;12.48;45.44
56074;BME280;41950;55.840;37.442;2023-04-06T09:32:09;100394.59;;;12.42;45.67
56074;BME280;41950;55.840;37.442;2023-04-06T09:34:42;100409.88;;;12.68;44.43
56074;BME280;41950;55.840;37.442;2023-04-06T09:37:18;100411.56;;;12.71;44.45
56074;BME280;41950;55.840;37.442;2023-04-06T09:39:45;100415.81;;;12.76;44.90
56074;BME280;41950;55.840;37.442;2023-04-06T09:42:31;100410.44;;;12.87;42.89
56074;BME280;41950;55.840;37.442;2023-04-06T09:44:57;100383.78;;;12.71;42.78
56074;BME280;41950;55.840;37.442;2023-04-06T09:47:22;100409.56;;;12.89;43.23
56074;BME280;41950;55.840;37.442;2023-04-06T09:49:50;100412.81;;;13.02;42.73
56074;BME280;41950;55.840;37.442;2023-04-06T09:52:16;100416.94;;;13.17;41.96
56074;BME280;41950;55.840;37.442;2023-04-06T09:54:43;100414.28;;;13.21;42.67
56074;BME280;41950;55.840;37.442;2023-04-06T09:57:17;100401.88;;;13.36;40.88
56074;BME280;41950;55.840;37.442;2023-04-06T10:00:05;100417.16;;;13.57;40.92
56074;BME280;41950;55.840;37.442;2023-04-06T10:02:58;100414.31;;;13.71;41.04
56074;BME280;41950;55.840;37.442;2023-04-06T10:08:10;100410.66;;;13.79;40.12
56074;BME280;41950;55.840;37.442;2023-04-06T10:10:37;100389.47;;;13.95;39.83
56074;BME280;41950;55.840;37.442;2023-04-06T10:13:03;100379.34;;;14.22;39.32
56074;BME280;41950;55.840;37.442;2023-04-06T10:15:30;100404.47;;;14.70;38.77
56074;BME280;41950;55.840;37.442;2023-04-06T10:18:00;100399.38;;;15.01;37.99
56074;BME280;41950;55.840;37.442;2023-04-06T10:20:48;100402.06;;;15.35;37.90
56074;BME280;41950;55.840;37.442;2023-04-06T10:26:00;100395.88;;;15.37;36.58
56074;BME280;41950;55.840;37.442;2023-04-06T10:28:32;100391.03;;;15.22;36.54
56074;BME280;41950;55.840;37.442;2023-04-06T10:31:04;100398.41;;;15.40;36.92
56074;BME280;41950;55.840;37.442;2023-04-06T10:33:33;100391.91;;;15.21;36.29
56074;BME280;41950;55.840;37.442;2023-04-06T10:36:23;100409.38;;;15.21;37.01
56074;BME280;41950;55.840;37.442;2023-04-06T10:38:55;100395.16;;;15.31;36.96
56074;BME280;41950;55.840;37.442;2023-04-06T10:41:22;100385.63;;;15.28;36.76
56074;BME280;41950;55.840;37.442;2023-04-06T10:43:55;100401.72;;;15.47;36.44
56074;BME280;41950;55.840;37.442;2023-04-06T10:46:25;100397.69;;;15.69;36.93
56074;BME280;41950;55.840;37.442;2023-04-06T10:48:51;100384.25;;;15.82;35.56
56074;BME280;41950;55.840;37.442;2023-04-06T10:51:18;100397.66;;;16.02;35.60
56074;BME280;41950;55.840;37.442;2023-04-06T10:53:47;100395.34;;;16.52;35.44
56074;BME280;41950;55.840;37.442;2023-04-06T10:56:16;100379.66;;;17.06;33.91
56074;BME280;41950;55.840;37.442;2023-04-06T10:58:49;100375.00;;;17.41;33.84
56074;BME280;41950;55.840;37.442;2023-04-06T11:01:18;100388.53;;;17.80;32.99
56074;BME280;41950;55.840;37.442;2023-04-06T11:03:49;100393.13;;;17.73;32.13
56074;BME280;41950;55.840;37.442;2023-04-06T11:06:19;100396.28;;;17.58;31.95
56074;BME280;41950;55.840;37.442;2023-04-06T11:08:46;100393.81;;;17.53;31.79
56074;BME280;41950;55.840;37.442;2023-04-06T11:11:17;100387.00;;;17.98;32.65
56074;BME280;41950;55.840;37.442;2023-04-06T11:13:53;100348.03;;;17.87;31.00
56074;BME280;41950;55.840;37.442;2023-04-06T11:16:22;100387.53;;;18.31;31.39
56074;BME280;41950;55.840;37.442;2023-04-06T11:18:51;100383.84;;;18.58;30.71
56074;BME280;41950;55.840;37.442;2023-04-06T11:21:19;100377.97;;;18.51;29.90
56074;BME280;41950;55.840;37.442;2023-04-06T11:23:45;100379.56;;;18.79;30.84
56074;BME280;41950;55.840;37.442;2023-04-06T11:26:12;100382.88;;;19.26;29.24
56074;BME280;41950;55.840;37.442;2023-04-06T11:28:42;100370.16;;;19.78;29.26
56074;BME280;41950;55.840;37.442;2023-04-06T11:31:11;100337.41;;;19.84;28.17
56074;BME280;41950;55.840;37.442;2023-04-06T11:33:38;100372.69;;;20.19;28.73
56074;BME280;41950;55.840;37.442;2023-04-06T11:36:05;100382.59;;;20.14;28.46
56074;BME280;41950;55.840;37.442;2023-04-06T11:38:32;100369.44;;;19.93;28.34
56074;BME280;41950;55.840;37.442;2023-04-06T11:40:58;100351.16;;;19.90;28.53
56074;BME280;41950;55.840;37.442;2023-04-06T11:43:29;100371.91;;;20.17;27.55
56074;BME280;41950;55.840;37.442;2023-04-06T11:46:00;100347.56;;;20.12;28.42
56074;BME280;41950;55.840;37.442;2023-04-06T11:48:28;100365.63;;;20.19;27.67
56074;BME280;41950;55.840;37.442;2023-04-06T11:50:58;100370.69;;;19.66;28.14
56074;BME280;41950;55.840;37.442;2023-04-06T11:53:29;100358.72;;;19.59;28.37
56074;BME280;41950;55.840;37.442;2023-04-06T11:55:55;100337.34;;;19.44;28.21
56074;BME280;41950;55.840;37.442;2023-04-06T11:58:21;100363.97;;;19.59;27.85
56074;BME280;41950;55.840;37.442;2023-04-06T12:00:47;100358.78;;;19.57;27.98
56074;BME280;41950;55.840;37.442;2023-04-06T12:03:13;100346.59;;;19.55;28.21
56074;BME280;41950;55.840;37.442;2023-04-06T12:05:40;100360.63;;;19.75;27.82
56074;BME280;41950;55.840;37.442;2023-04-06T12:08:05;100367.75;;;19.92;27.98
56074;BME280;41950;55.840;37.442;2023-04-06T12:10:31;100372.63;;;20.01;28.21
56074;BME280;41950;55.840;37.442;2023-04-06T12:12:57;100363.84;;;20.20;27.52
56074;BME280;41950;55.840;37.442;2023-04-06T12:15:23;100358.34;;;20.45;27.79
56074;BME280;41950;55.840;37.442;2023-04-06T12:17:49;100363.22;;;21.07;27.37
56074;BME280;41950;55.840;37.442;2023-04-06T12:20:17;100316.41;;;20.93;27.06
56074;BME280;41950;55.840;37.442;2023-04-06T12:22:43;100355.59;;;20.84;26.68
56074;BME280;41950;55.840;37.442;2023-04-06T12:25:09;100359.91;;;20.49;27.70
56074;BME280;41950;55.840;37.442;2023-04-06T12:27:34;100350.47;;;20.98;27.05
56074;BME280;41950;55.840;37.442;2023-04-06T12:30:00;100345.50;;;20.92;26.80
56074;BME280;41950;55.840;37.442;2023-04-06T12:32:28;100341.53;;;21.01;27.02
56074;BME280;41950;55.840;37.442;2023-04-06T12:34:54;100338.16;;;20.62;26.93
56074;BME280;41950;55.840;37.442;2023-04-06T12:37:20;100336.75;;;20.91;27.07
56074;BME280;41950;55.840;37.442;2023-04-06T12:39:46;100337.97;;;21.38;26.58
56074;BME280;41950;55.840;37.442;2023-04-06T12:42:13;100323.94;;;21.53;26.31
56074;BME280;41950;55.840;37.442;2023-04-06T12:44:40;100319.91;;;21.11;26.04
56074;BME280;41950;55.840;37.442;2023-04-06T12:47:08;100341.94;;;20.93;26.67
56074;BME280;41950;55.840;37.442;2023-04-06T12:49:33;100339.16;;;21.13;27.14